createdAt,value
2023-04-02T00:00:20.022Z,3.20
2023-04-02T00:03:12.737Z,3.00
2023-04-02T00:05:56.734Z,3.10
2023-04-02T00:08:39.076Z,3.50
2023-04-02T00:11:33.329Z,3.70
2023-04-02T00:14:17.978Z,3.40
2023-04-02T00:16:54.837Z,4.70
2023-04-02T00:19:45.075Z,5.10
2023-04-02T00:22:34.517Z,3.40
2023-04-02T00:25:16.133Z,4.50
2023-04-02T00:27:46.818Z,5.00
2023-04-02T00:30:17.789Z,4.50
2023-04-02T00:32:48.739Z,3.80
2023-04-02T00:35:28.529Z,6.00
2023-04-02T00:37:59.372Z,6.20
2023-04-02T00:40:35.987Z,5.80
2023-04-02T00:43:33.353Z,5.20
2023-04-02T00:46:16.623Z,8.20
2023-04-02T00:49:01.707Z,6.10
2023-04-02T00:51:41.922Z,6.40
2023-04-02T00:54:17.023Z,7.10
2023-04-02T00:56:56.139Z,6.00
2023-04-02T00:59:35.774Z,6.30
2023-04-02T01:02:15.320Z,8.20
2023-04-02T01:08:35.541Z,7.20
2023-04-02T01:11:28.659Z,7.00
2023-04-02T01:14:45.621Z,4.40
2023-04-02T01:17:43.918Z,9.50
2023-04-02T01:21:22.002Z,7.80
2023-04-02T01:24:07.768Z,9.20
2023-04-02T01:26:51.837Z,7.10
2023-04-02T01:29:37.514Z,6.50
2023-04-02T01:32:16.568Z,6.70
2023-04-02T01:34:49.893Z,6.10
2023-04-02T01:37:57.485Z,7.90
2023-04-02T01:41:04.108Z,7.20
2023-04-02T01:43:41.949Z,6.80
2023-04-02T01:46:33.191Z,6.90
2023-04-02T01:49:17.154Z,5.80
2023-04-02T01:51:58.798Z,6.80
2023-04-02T01:54:40.103Z,6.00
2023-04-02T01:57:12.800Z,4.40
2023-04-02T01:59:46.523Z,6.70
2023-04-02T02:02:16.601Z,7.30
2023-04-02T02:04:49.768Z,7.50
2023-04-02T02:07:21.618Z,5.50
2023-04-02T02:09:54.450Z,9.10
2023-04-02T02:12:25.644Z,8.10
2023-04-02T02:15:00.831Z,10.90
2023-04-02T02:17:34.654Z,11.80
2023-04-02T02:20:11.935Z,7.30
2023-04-02T02:22:52.013Z,9.60
2023-04-02T02:25:32.022Z,9.60
2023-04-02T02:28:16.507Z,8.30
2023-04-02T02:30:57.057Z,7.70
2023-04-02T02:33:47.294Z,6.60
2023-04-02T02:37:03.438Z,5.20
2023-04-02T02:39:46.233Z,5.90
2023-04-02T02:42:36.635Z,6.20
2023-04-02T02:45:18.808Z,5.30
2023-04-02T02:47:52.681Z,6.50
2023-04-02T02:50:31.816Z,8.50
2023-04-02T02:53:28.492Z,6.50
2023-04-02T02:56:01.755Z,5.00
2023-04-02T02:58:36.590Z,4.40
2023-04-02T03:01:57.272Z,5.70
2023-04-02T03:04:31.409Z,5.30
2023-04-02T03:07:06.842Z,5.60
2023-04-02T03:10:43.346Z,5.60
2023-04-02T03:13:47.592Z,5.50
2023-04-02T03:16:37.543Z,6.40
2023-04-02T03:19:48.524Z,7.20
2023-04-02T03:22:56.794Z,6.50
2023-04-02T03:25:51.207Z,6.30
2023-04-02T03:28:29.281Z,8.00
2023-04-02T03:31:57.841Z,9.00
2023-04-02T03:34:33.556Z,7.10
2023-04-02T03:37:15.024Z,7.40
2023-04-02T03:40:04.644Z,8.70
2023-04-02T03:43:23.160Z,9.10
2023-04-02T03:46:16.813Z,10.00
2023-04-02T03:48:58.319Z,7.30
2023-04-02T03:51:29.192Z,11.40
2023-04-02T03:54:03.462Z,9.70
2023-04-02T03:56:42.534Z,12.00
2023-04-02T04:00:20.626Z,8.90
2023-04-02T04:03:08.586Z,10.00
2023-04-02T04:05:50.235Z,9.70
2023-04-02T04:08:28.140Z,7.90
2023-04-02T04:11:02.234Z,9.30
2023-04-02T04:14:15.004Z,9.80
2023-04-02T04:17:10.242Z,11.70
2023-04-02T04:20:20.350Z,7.70
2023-04-02T04:22:56.315Z,10.30
2023-04-02T04:25:34.151Z,12.70
2023-04-02T04:28:44.207Z,12.80
2023-04-02T04:31:41.569Z,12.00
2023-04-02T04:34:53.836Z,15.50
2023-04-02T04:37:43.165Z,16.10
2023-04-02T04:40:23.399Z,15.40
2023-04-02T04:42:59.438Z,12.60
2023-04-02T04:46:00.585Z,14.00
2023-04-02T04:49:01.669Z,17.40
2023-04-02T04:51:45.633Z,13.90
2023-04-02T04:54:16.413Z,14.30
2023-04-02T04:56:55.255Z,14.20
2023-04-02T05:00:00.405Z,18.30
2023-04-02T05:02:40.126Z,11.10
2023-04-02T05:05:29.829Z,13.90
2023-04-02T05:08:19.609Z,15.10
2023-04-02T05:10:58.364Z,14.30
2023-04-02T05:13:57.646Z,8.60
2023-04-02T05:16:51.813Z,10.90
2023-04-02T05:19:50.606Z,10.80
2023-04-02T05:22:57.348Z,10.70
2023-04-02T05:25:34.210Z,10.30
2023-04-02T05:29:12.203Z,8.10
2023-04-02T05:32:03.723Z,9.30
2023-04-02T05:34:40.804Z,8.30
2023-04-02T05:37:23.926Z,9.70
2023-04-02T05:39:58.531Z,8.40
2023-04-02T05:42:32.873Z,8.70
2023-04-02T05:45:29.383Z,9.40
2023-04-02T05:48:05.837Z,7.90
2023-04-02T05:50:50.434Z,7.20
2023-04-02T05:53:47.237Z,6.70
2023-04-02T05:56:49.488Z,7.80
2023-04-02T05:59:31.933Z,7.30
2023-04-02T06:02:25.303Z,8.10
2023-04-02T06:05:12.748Z,6.90
2023-04-02T06:07:47.157Z,8.50
2023-04-02T06:10:34.253Z,6.90
2023-04-02T06:13:08.827Z,7.80
2023-04-02T06:15:47.763Z,7.40
2023-04-02T06:18:36.838Z,5.80
2023-04-02T06:21:08.016Z,6.30
2023-04-02T06:23:55.654Z,8.60
2023-04-02T06:26:38.370Z,8.30
2023-04-02T06:29:40.071Z,6.20
2023-04-02T06:32:13.468Z,6.70
2023-04-02T06:34:46.217Z,5.90
2023-04-02T06:37:27.917Z,4.90
2023-04-02T06:40:18.467Z,6.50
2023-04-02T06:42:57.117Z,6.10
2023-04-02T06:45:46.570Z,7.30
2023-04-02T06:48:31.822Z,6.00
2023-04-02T06:51:14.292Z,6.40
2023-04-02T06:53:53.392Z,5.00
2023-04-02T06:56:31.833Z,5.00
2023-04-02T06:59:03.724Z,7.20
2023-04-02T07:01:49.115Z,7.20
2023-04-02T07:04:23.688Z,4.50
2023-04-02T07:07:05.595Z,5.90
2023-04-02T07:09:42.524Z,5.00
2023-04-02T07:12:16.383Z,3.50
2023-04-02T07:14:48.203Z,7.60
2023-04-02T07:17:18.865Z,6.90
2023-04-02T07:19:51.883Z,4.20
2023-04-02T07:22:24.021Z,5.30
2023-04-02T07:24:57.252Z,7.10
2023-04-02T07:27:26.717Z,5.00
2023-04-02T07:30:03.924Z,6.10
2023-04-02T07:32:36.220Z,50.70
2023-04-02T07:35:08.377Z,5.00
2023-04-02T07:37:39.624Z,4.60
2023-04-02T07:40:19.109Z,5.30
2023-04-02T07:42:48.853Z,4.40
2023-04-02T07:45:20.639Z,7.50
2023-04-02T07:47:50.346Z,7.60
2023-04-02T07:50:20.290Z,5.30
2023-04-02T07:52:51.952Z,5.00
2023-04-02T07:55:21.435Z,7.10
2023-04-02T07:57:57.339Z,6.70
2023-04-02T08:00:29.013Z,8.40
2023-04-02T08:02:59.882Z,4.90
2023-04-02T08:05:31.406Z,6.60
2023-04-02T08:08:01.683Z,6.90
2023-04-02T08:10:31.130Z,7.90
2023-04-02T08:13:00.506Z,9.20
2023-04-02T08:15:29.911Z,7.50
2023-04-02T08:17:59.525Z,11.90
2023-04-02T08:20:29.340Z,8.40
2023-04-02T08:22:58.737Z,14.00
2023-04-02T08:25:28.368Z,14.60
2023-04-02T08:27:58.346Z,9.70
2023-04-02T08:30:27.696Z,9.30
2023-04-02T08:32:57.222Z,9.80
2023-04-02T08:35:26.797Z,9.20
2023-04-02T08:37:57.426Z,8.60
2023-04-02T08:40:27.832Z,10.80
2023-04-02T08:44:04.270Z,9.10
2023-04-02T08:46:49.556Z,11.10
2023-04-02T08:49:32.237Z,11.30
2023-04-02T08:52:01.828Z,8.00
2023-04-02T08:54:43.805Z,9.60
2023-04-02T08:57:47.883Z,8.20
2023-04-02T09:00:41.004Z,9.00
2023-04-02T09:06:16.793Z,9.70
2023-04-02T09:08:50.295Z,10.60
2023-04-02T09:11:54.061Z,8.50
2023-04-02T09:14:47.448Z,8.80
2023-04-02T09:17:25.299Z,9.60
2023-04-02T09:20:18.123Z,7.30
2023-04-02T09:22:51.467Z,6.50
2023-04-02T09:25:24.027Z,7.50
2023-04-02T09:27:56.371Z,7.20
2023-04-02T09:30:33.565Z,5.70
2023-04-02T09:33:09.306Z,6.10
2023-04-02T09:35:58.038Z,7.20
2023-04-02T09:38:31.763Z,6.80
2023-04-02T09:41:07.620Z,5.90
2023-04-02T09:43:39.555Z,6.10
2023-04-02T09:46:26.120Z,6.20
2023-04-02T09:51:34.882Z,6.70
2023-04-02T09:54:04.162Z,6.00
2023-04-02T09:56:38.869Z,7.20
2023-04-02T09:59:23.030Z,9.20
2023-04-02T10:01:55.596Z,8.60
2023-04-02T10:04:45.485Z,9.90
2023-04-02T10:07:44.115Z,8.60
2023-04-02T10:10:40.726Z,8.70
2023-04-02T10:13:31.521Z,8.20
2023-04-02T10:16:39.889Z,6.90
2023-04-02T10:19:58.986Z,9.00
2023-04-02T10:22:29.402Z,7.40
2023-04-02T10:24:59.710Z,11.80
2023-04-02T10:28:12.109Z,12.80
2023-04-02T10:31:11.659Z,12.50
2023-04-02T10:33:53.422Z,12.50
2023-04-02T10:37:32.034Z,12.90
2023-04-02T10:40:48.615Z,16.40
2023-04-02T10:43:53.757Z,12.00
2023-04-02T10:47:10.401Z,36.30
2023-04-02T10:50:26.380Z,33.30
2023-04-02T10:53:23.905Z,17.30
2023-04-02T10:56:03.694Z,22.40
2023-04-02T10:58:40.383Z,20.30
2023-04-02T11:01:18.928Z,22.80
2023-04-02T11:03:58.027Z,21.70
2023-04-02T11:06:38.489Z,18.20
2023-04-02T11:09:18.790Z,18.20
2023-04-02T11:11:53.277Z,15.10
2023-04-02T11:14:31.983Z,18.30
2023-04-02T11:17:04.957Z,24.70
2023-04-02T11:19:36.611Z,21.30
2023-04-02T11:22:25.801Z,23.30
2023-04-02T11:24:57.384Z,26.70
2023-04-02T11:27:30.984Z,19.50
2023-04-02T11:30:26.481Z,19.70
2023-04-02T11:34:06.846Z,18.30
2023-04-02T11:36:54.488Z,21.60
2023-04-02T11:40:02.589Z,21.10
2023-04-02T11:42:38.314Z,21.50
2023-04-02T11:45:29.116Z,16.60
2023-04-02T11:48:27.229Z,16.20
2023-04-02T11:50:58.358Z,18.10
2023-04-02T11:53:38.297Z,14.90
2023-04-02T11:56:25.347Z,14.70
2023-04-02T11:59:28.157Z,18.90
2023-04-02T12:05:16.604Z,18.10
2023-04-02T12:08:57.861Z,19.10
2023-04-02T12:11:56.161Z,20.90
2023-04-02T12:14:47.358Z,20.50
2023-04-02T12:17:29.088Z,16.10
2023-04-02T12:20:22.829Z,13.10
2023-04-02T12:22:57.338Z,13.60
2023-04-02T12:25:40.943Z,13.30
2023-04-02T12:28:10.900Z,11.80
2023-04-02T12:30:42.093Z,11.50
2023-04-02T12:33:21.087Z,11.20
2023-04-02T12:35:58.215Z,9.50
2023-04-02T12:38:30.399Z,9.60
2023-04-02T12:41:06.486Z,7.60
2023-04-02T12:43:38.133Z,10.20
2023-04-02T12:46:13.799Z,7.60
2023-04-02T12:48:43.512Z,9.80
2023-04-02T12:51:13.703Z,9.70
2023-04-02T12:53:50.733Z,7.80
2023-04-02T12:56:23.996Z,9.30
2023-04-02T12:59:02.462Z,8.00
2023-04-02T13:01:34.021Z,6.40
2023-04-02T13:04:12.782Z,8.20
2023-04-02T13:06:57.495Z,9.90
2023-04-02T13:09:45.392Z,7.50
2023-04-02T13:12:32.693Z,7.70
2023-04-02T13:15:31.919Z,6.50
2023-04-02T13:18:13.925Z,11.80
2023-04-02T13:20:54.912Z,7.30
2023-04-02T13:23:37.848Z,7.00
2023-04-02T13:26:26.775Z,9.50
2023-04-02T13:29:03.386Z,7.20
2023-04-02T13:31:36.428Z,9.10
2023-04-02T13:34:09.987Z,9.60
2023-04-02T13:36:40.548Z,14.20
2023-04-02T13:39:11.959Z,11.40
2023-04-02T13:41:59.710Z,10.50
2023-04-02T13:44:37.800Z,10.10
2023-04-02T13:47:33.465Z,7.80
2023-04-02T13:50:06.987Z,7.00
2023-04-02T13:52:59.540Z,6.10
2023-04-02T13:55:54.823Z,8.10
2023-04-02T13:58:36.665Z,11.50
2023-04-02T14:01:07.436Z,8.50
2023-04-02T14:06:31.441Z,5.20
2023-04-02T14:09:40.366Z,6.60
2023-04-02T14:12:54.915Z,6.30
2023-04-02T14:16:07.476Z,4.30
2023-04-02T14:19:36.591Z,5.50
2023-04-02T14:22:37.057Z,3.60
2023-04-02T14:25:22.187Z,4.40
2023-04-02T14:28:14.697Z,4.60
2023-04-02T14:31:03.847Z,7.40
2023-04-02T14:33:52.476Z,3.70
2023-04-02T14:36:50.455Z,5.50
2023-04-02T14:40:14.978Z,4.70
2023-04-02T14:43:34.950Z,2.90
2023-04-02T14:46:32.608Z,4.40
2023-04-02T14:49:45.014Z,2.10
2023-04-02T14:52:21.963Z,2.40
2023-04-02T14:55:05.513Z,1.60
2023-04-02T14:57:52.155Z,1.70
2023-04-02T15:00:31.173Z,1.40
2023-04-02T15:03:34.008Z,1.00
2023-04-02T15:06:16.967Z,1.50
2023-04-02T15:09:09.738Z,1.00
2023-04-02T15:11:51.324Z,1.20
2023-04-02T15:14:46.105Z,2.10
2023-04-02T15:17:16.194Z,2.50
2023-04-02T15:19:47.669Z,2.40
2023-04-02T15:22:37.655Z,2.40
2023-04-02T15:25:24.132Z,2.80
2023-04-02T15:28:29.317Z,6.20
2023-04-02T15:31:03.890Z,4.60
2023-04-02T15:33:52.751Z,5.30
2023-04-02T15:36:49.009Z,2.80
2023-04-02T15:39:58.290Z,1.70
2023-04-02T15:42:44.579Z,2.20
2023-04-02T15:45:46.254Z,1.70
2023-04-02T15:48:58.980Z,2.70
2023-04-02T15:52:12.982Z,1.80
2023-04-02T15:54:59.990Z,3.40
2023-04-02T15:57:51.573Z,3.60
2023-04-02T16:00:22.621Z,5.20
2023-04-02T16:03:23.795Z,12.40
2023-04-02T16:06:20.914Z,6.80
2023-04-02T16:09:16.735Z,7.40
2023-04-02T16:11:46.199Z,6.90
2023-04-02T16:14:27.420Z,7.10
2023-04-02T16:17:17.699Z,7.50
2023-04-02T16:20:09.082Z,7.40
2023-04-02T16:22:53.317Z,5.50
2023-04-02T16:25:41.431Z,5.50
2023-04-02T16:29:10.594Z,9.60
2023-04-02T16:31:52.774Z,16.20
2023-04-02T16:35:18.681Z,16.40
2023-04-02T16:38:03.015Z,9.30
2023-04-02T16:40:42.240Z,7.30
2023-04-02T16:43:14.763Z,6.40
2023-04-02T16:45:56.284Z,10.60
2023-04-02T16:48:51.128Z,7.40
2023-04-02T16:51:39.709Z,7.70
2023-04-02T16:54:29.344Z,9.30
2023-04-02T16:57:39.310Z,8.00
2023-04-02T17:00:49.724Z,6.50
2023-04-02T17:03:53.895Z,8.90
2023-04-02T17:06:42.390Z,10.70
2023-04-02T17:09:19.824Z,14.80
2023-04-02T17:12:20.146Z,15.00
2023-04-02T17:15:03.247Z,15.40
2023-04-02T17:17:33.356Z,12.50
2023-04-02T17:20:10.589Z,11.60
2023-04-02T17:22:42.129Z,12.20
2023-04-02T17:25:22.065Z,13.40
2023-04-02T17:27:55.880Z,11.20
2023-04-02T17:30:38.638Z,12.00
2023-04-02T17:33:18.399Z,9.10
2023-04-02T17:36:00.603Z,12.70
2023-04-02T17:39:24.237Z,11.10
2023-04-02T17:42:17.008Z,15.00
2023-04-02T17:44:59.585Z,16.70
2023-04-02T17:48:12.950Z,25.50
2023-04-02T17:51:02.686Z,25.10
2023-04-02T17:53:52.467Z,29.20
2023-04-02T17:56:53.190Z,38.50
2023-04-02T17:59:37.494Z,59.40
2023-04-02T18:02:52.582Z,62.10
2023-04-02T18:05:34.263Z,74.10
2023-04-02T18:08:03.875Z,71.80
2023-04-02T18:10:46.733Z,62.00
2023-04-02T18:13:40.565Z,70.20
2023-04-02T18:16:55.317Z,54.50
2023-04-02T18:19:47.835Z,65.80
2023-04-02T18:22:57.065Z,71.00
2023-04-02T18:26:27.941Z,52.60
2023-04-02T18:29:37.416Z,46.90
2023-04-02T18:32:37.460Z,30.80
2023-04-02T18:35:32.657Z,34.30
2023-04-02T18:38:47.844Z,31.10
2023-04-02T18:42:03.386Z,31.70
2023-04-02T18:45:31.824Z,32.30
2023-04-02T18:48:19.561Z,32.00
2023-04-02T18:50:49.840Z,30.80
2023-04-02T18:53:29.736Z,35.30
2023-04-02T18:56:32.050Z,31.20
2023-04-02T18:59:12.317Z,36.00
2023-04-02T19:01:51.486Z,35.00
2023-04-02T19:05:14.975Z,25.70
2023-04-02T19:08:03.850Z,28.60
2023-04-02T19:11:29.808Z,26.50
2023-04-02T19:20:39.122Z,14.70
2023-04-02T19:28:12.301Z,12.10
2023-04-02T19:31:59.878Z,13.30
2023-04-02T19:38:46.417Z,13.50
2023-04-02T19:54:00.210Z,5.20
2023-04-02T19:57:30.233Z,6.80
2023-04-02T20:01:02.427Z,8.50
2023-04-02T20:03:38.558Z,10.70
2023-04-02T20:06:25.768Z,7.60
2023-04-02T20:09:23.316Z,8.50
2023-04-02T20:13:30.045Z,9.30
2023-04-02T20:20:40.955Z,5.70
2023-04-02T20:24:58.782Z,6.30
2023-04-02T20:30:38.017Z,5.30
2023-04-02T20:34:11.227Z,7.70
2023-04-02T20:36:42.564Z,6.70
2023-04-02T20:39:19.920Z,6.00
2023-04-02T20:41:50.198Z,6.50
2023-04-02T20:44:30.777Z,5.80
2023-04-02T20:47:03.185Z,6.00
2023-04-02T20:49:36.652Z,5.30
2023-04-02T20:52:08.808Z,5.50
2023-04-02T20:54:41.821Z,7.50
2023-04-02T20:57:13.968Z,8.80
2023-04-02T20:59:46.607Z,11.00
2023-04-02T21:02:53.834Z,9.20
2023-04-02T21:05:23.883Z,13.40
2023-04-02T21:07:55.589Z,16.50
2023-04-02T21:10:28.584Z,14.00
2023-04-02T21:13:00.820Z,10.90
2023-04-02T21:15:31.295Z,12.80
2023-04-02T21:18:02.797Z,12.00
2023-04-02T21:20:52.133Z,12.30
2023-04-02T21:23:41.589Z,12.50
2023-04-02T21:30:52.721Z,12.20
2023-04-02T21:34:43.248Z,11.70
2023-04-02T21:37:15.069Z,14.60
2023-04-02T21:40:26.462Z,12.40
2023-04-02T21:43:24.340Z,13.40
2023-04-02T21:45:59.986Z,12.80
2023-04-02T21:48:34.396Z,11.50
2023-04-02T21:54:56.500Z,13.30
2023-04-02T21:57:48.182Z,12.60
2023-04-02T22:00:39.240Z,12.30
2023-04-02T22:03:21.498Z,12.00
2023-04-02T22:06:14.345Z,15.90
2023-04-02T22:09:07.600Z,14.50
2023-04-02T22:12:08.625Z,13.90
2023-04-02T22:14:39.785Z,17.70
2023-04-02T22:17:26.307Z,15.00
2023-04-02T22:19:56.660Z,13.70
2023-04-02T22:22:30.432Z,13.70
2023-04-02T22:25:03.222Z,14.70
2023-04-02T22:27:34.795Z,13.50
2023-04-02T22:30:11.607Z,15.80
2023-04-02T22:41:52.610Z,13.70
2023-04-02T22:44:43.286Z,12.80
2023-04-02T22:47:53.837Z,13.80
2023-04-02T22:50:38.173Z,14.60
2023-04-02T22:53:23.398Z,12.40
2023-04-02T22:56:14.192Z,16.20
2023-04-02T22:58:45.546Z,15.90
2023-04-02T23:01:23.665Z,16.50
2023-04-02T23:03:55.394Z,16.00
2023-04-02T23:06:26.649Z,14.20
2023-04-02T23:08:59.646Z,15.30
2023-04-02T23:11:29.974Z,14.10
2023-04-02T23:14:00.615Z,16.50
2023-04-02T23:16:31.680Z,17.00
2023-04-02T23:19:04.756Z,17.00
2023-04-02T23:21:35.278Z,18.20
2023-04-02T23:24:07.780Z,15.60
2023-04-02T23:26:41.589Z,16.30
2023-04-02T23:29:30.589Z,16.70
2023-04-02T23:32:06.351Z,17.90
2023-04-02T23:34:36.266Z,17.30
2023-04-02T23:37:09.241Z,15.60
2023-04-02T23:39:41.504Z,16.80
2023-04-02T23:42:12.581Z,20.20
2023-04-02T23:44:42.407Z,17.50
2023-04-02T23:47:12.038Z,18.40
2023-04-02T23:49:47.748Z,18.90
2023-04-02T23:52:17.532Z,22.90
2023-04-02T23:54:47.849Z,20.70
2023-04-02T23:57:18.449Z,20.80
2023-04-02T23:59:49.324Z,19.50
